sensor_id;sensor_type;location;lat;lon;timestamp;P1;durP1;ratioP1;P2;durP2;ratioP2
66727;SDS011;53641;44.274;19.890;2023-09-19T00:00:45;7.68;;;4.05;;
66727;SDS011;53641;44.274;19.890;2023-09-19T00:03:15;7.10;;;3.80;;
66727;SDS011;53641;44.274;19.890;2023-09-19T00:05:41;7.72;;;3.50;;
66727;SDS011;53641;44.274;19.890;2023-09-19T00:08:10;6.20;;;3.63;;
66727;SDS011;53641;44.274;19.890;2023-09-19T00:10:38;7.43;;;3.78;;
66727;SDS011;53641;44.274;19.890;2023-09-19T00:13:06;6.20;;;4.18;;
66727;SDS011;53641;44.274;19.890;2023-09-19T00:15:36;8.85;;;4.10;;
66727;SDS011;53641;44.274;19.890;2023-09-19T00:18:03;6.50;;;4.38;;
66727;SDS011;53641;44.274;19.890;2023-09-19T00:20:35;6.72;;;4.13;;
66727;SDS011;53641;44.274;19.890;2023-09-19T00:23:01;8.45;;;4.07;;
66727;SDS011;53641;44.274;19.890;2023-09-19T00:25:33;6.72;;;4.03;;
66727;SDS011;53641;44.274;19.890;2023-09-19T00:28:00;7.63;;;4.18;;
66727;SDS011;53641;44.274;19.890;2023-09-19T00:30:26;11.55;;;3.90;;
66727;SDS011;53641;44.274;19.890;2023-09-19T00:32:52;7.07;;;3.40;;
66727;SDS011;53641;44.274;19.890;2023-09-19T00:35:20;6.75;;;4.00;;
66727;SDS011;53641;44.274;19.890;2023-09-19T00:37:46;6.93;;;3.97;;
66727;SDS011;53641;44.274;19.890;2023-09-19T00:40:12;9.65;;;3.70;;
66727;SDS011;53641;44.274;19.890;2023-09-19T00:42:40;6.10;;;3.67;;
66727;SDS011;53641;44.274;19.890;2023-09-19T00:45:07;6.68;;;3.83;;
66727;SDS011;53641;44.274;19.890;2023-09-19T00:47:47;6.80;;;3.55;;
66727;SDS011;53641;44.274;19.890;2023-09-19T00:50:15;7.65;;;4.13;;
66727;SDS011;53641;44.274;19.890;2023-09-19T00:52:43;6.15;;;4.22;;
66727;SDS011;53641;44.274;19.890;2023-09-19T00:55:11;7.97;;;3.53;;
66727;SDS011;53641;44.274;19.890;2023-09-19T00:57:38;5.90;;;3.90;;
66727;SDS011;53641;44.274;19.890;2023-09-19T01:00:05;5.60;;;3.45;;
66727;SDS011;53641;44.274;19.890;2023-09-19T01:02:40;8.18;;;3.88;;
66727;SDS011;53641;44.274;19.890;2023-09-19T01:05:10;5.03;;;3.50;;
66727;SDS011;53641;44.274;19.890;2023-09-19T01:07:37;5.28;;;3.40;;
66727;SDS011;53641;44.274;19.890;2023-09-19T01:10:11;6.47;;;3.65;;
66727;SDS011;53641;44.274;19.890;2023-09-19T01:12:45;5.90;;;3.90;;
66727;SDS011;53641;44.274;19.890;2023-09-19T01:15:50;6.45;;;3.35;;
66727;SDS011;53641;44.274;19.890;2023-09-19T01:18:35;6.40;;;3.97;;
66727;SDS011;53641;44.274;19.890;2023-09-19T01:21:15;5.85;;;3.33;;
66727;SDS011;53641;44.274;19.890;2023-09-19T01:24:05;6.32;;;3.65;;
66727;SDS011;53641;44.274;19.890;2023-09-19T01:26:56;9.05;;;3.88;;
66727;SDS011;53641;44.274;19.890;2023-09-19T01:29:38;5.28;;;3.55;;
66727;SDS011;53641;44.274;19.890;2023-09-19T01:32:09;5.43;;;3.97;;
66727;SDS011;53641;44.274;19.890;2023-09-19T01:34:48;4.43;;;3.00;;
66727;SDS011;53641;44.274;19.890;2023-09-19T01:37:16;7.20;;;3.60;;
66727;SDS011;53641;44.274;19.890;2023-09-19T01:39:48;4.50;;;3.22;;
66727;SDS011;53641;44.274;19.890;2023-09-19T01:42:27;5.25;;;3.38;;
66727;SDS011;53641;44.274;19.890;2023-09-19T01:45:12;5.95;;;3.53;;
66727;SDS011;53641;44.274;19.890;2023-09-19T01:48:02;4.43;;;3.13;;
66727;SDS011;53641;44.274;19.890;2023-09-19T01:51:01;6.45;;;3.22;;
66727;SDS011;53641;44.274;19.890;2023-09-19T01:53:34;6.95;;;3.60;;
66727;SDS011;53641;44.274;19.890;2023-09-19T01:56:02;6.95;;;3.22;;
66727;SDS011;53641;44.274;19.890;2023-09-19T01:58:46;5.93;;;3.65;;
66727;SDS011;53641;44.274;19.890;2023-09-19T02:01:15;4.90;;;3.05;;
66727;SDS011;53641;44.274;19.890;2023-09-19T02:03:44;7.13;;;3.45;;
66727;SDS011;53641;44.274;19.890;2023-09-19T02:06:16;4.15;;;2.95;;
66727;SDS011;53641;44.274;19.890;2023-09-19T02:08:43;4.50;;;3.17;;
66727;SDS011;53641;44.274;19.890;2023-09-19T02:11:10;5.10;;;3.22;;
66727;SDS011;53641;44.274;19.890;2023-09-19T02:13:36;7.22;;;3.47;;
66727;SDS011;53641;44.274;19.890;2023-09-19T02:16:03;5.63;;;3.22;;
66727;SDS011;53641;44.274;19.890;2023-09-19T02:18:32;5.05;;;3.28;;
66727;SDS011;53641;44.274;19.890;2023-09-19T02:21:00;5.70;;;3.28;;
66727;SDS011;53641;44.274;19.890;2023-09-19T02:23:26;5.40;;;3.22;;
66727;SDS011;53641;44.274;19.890;2023-09-19T02:25:53;4.40;;;3.03;;
66727;SDS011;53641;44.274;19.890;2023-09-19T02:28:19;5.57;;;3.15;;
66727;SDS011;53641;44.274;19.890;2023-09-19T02:30:48;4.80;;;3.40;;
66727;SDS011;53641;44.274;19.890;2023-09-19T02:33:15;7.03;;;3.20;;
66727;SDS011;53641;44.274;19.890;2023-09-19T02:35:42;5.18;;;3.60;;
66727;SDS011;53641;44.274;19.890;2023-09-19T02:38:08;6.13;;;3.88;;
66727;SDS011;53641;44.274;19.890;2023-09-19T02:40:37;7.88;;;3.55;;
66727;SDS011;53641;44.274;19.890;2023-09-19T02:43:03;7.55;;;4.00;;
66727;SDS011;53641;44.274;19.890;2023-09-19T02:45:30;8.35;;;3.83;;
66727;SDS011;53641;44.274;19.890;2023-09-19T02:47:57;5.68;;;3.45;;
66727;SDS011;53641;44.274;19.890;2023-09-19T02:50:23;6.32;;;3.65;;
66727;SDS011;53641;44.274;19.890;2023-09-19T02:52:49;8.02;;;3.60;;
66727;SDS011;53641;44.274;19.890;2023-09-19T02:55:16;6.25;;;3.45;;
66727;SDS011;53641;44.274;19.890;2023-09-19T02:57:51;5.88;;;3.88;;
66727;SDS011;53641;44.274;19.890;2023-09-19T03:00:20;6.25;;;3.53;;
66727;SDS011;53641;44.274;19.890;2023-09-19T03:02:48;5.50;;;4.05;;
66727;SDS011;53641;44.274;19.890;2023-09-19T03:05:14;7.88;;;3.58;;
66727;SDS011;53641;44.274;19.890;2023-09-19T03:07:40;9.98;;;3.90;;
66727;SDS011;53641;44.274;19.890;2023-09-19T03:10:08;7.15;;;3.88;;
66727;SDS011;53641;44.274;19.890;2023-09-19T03:12:34;6.22;;;3.72;;
66727;SDS011;53641;44.274;19.890;2023-09-19T03:17:36;6.20;;;3.50;;
66727;SDS011;53641;44.274;19.890;2023-09-19T03:20:02;7.53;;;4.03;;
66727;SDS011;53641;44.274;19.890;2023-09-19T03:22:32;6.30;;;4.03;;
66727;SDS011;53641;44.274;19.890;2023-09-19T03:25:01;7.43;;;3.58;;
66727;SDS011;53641;44.274;19.890;2023-09-19T03:27:28;6.68;;;3.88;;
66727;SDS011;53641;44.274;19.890;2023-09-19T03:29:54;5.85;;;3.80;;
66727;SDS011;53641;44.274;19.890;2023-09-19T03:32:20;7.25;;;3.90;;
66727;SDS011;53641;44.274;19.890;2023-09-19T03:34:46;6.25;;;4.25;;
66727;SDS011;53641;44.274;19.890;2023-09-19T03:37:13;10.13;;;4.30;;
66727;SDS011;53641;44.274;19.890;2023-09-19T03:39:39;7.00;;;4.05;;
66727;SDS011;53641;44.274;19.890;2023-09-19T03:42:05;6.45;;;4.10;;
66727;SDS011;53641;44.274;19.890;2023-09-19T03:44:32;8.57;;;3.90;;
66727;SDS011;53641;44.274;19.890;2023-09-19T03:46:58;6.35;;;3.60;;
66727;SDS011;53641;44.274;19.890;2023-09-19T03:49:24;6.78;;;4.13;;
66727;SDS011;53641;44.274;19.890;2023-09-19T03:51:50;8.15;;;4.05;;
66727;SDS011;53641;44.274;19.890;2023-09-19T03:54:16;6.38;;;4.00;;
66727;SDS011;53641;44.274;19.890;2023-09-19T03:56:44;7.03;;;4.25;;
66727;SDS011;53641;44.274;19.890;2023-09-19T03:59:10;5.50;;;3.80;;
66727;SDS011;53641;44.274;19.890;2023-09-19T04:01:37;7.38;;;4.15;;
66727;SDS011;53641;44.274;19.890;2023-09-19T04:04:03;6.72;;;4.45;;
66727;SDS011;53641;44.274;19.890;2023-09-19T04:06:36;9.52;;;3.95;;
66727;SDS011;53641;44.274;19.890;2023-09-19T04:09:02;6.47;;;3.88;;
66727;SDS011;53641;44.274;19.890;2023-09-19T04:11:29;6.63;;;3.83;;
66727;SDS011;53641;44.274;19.890;2023-09-19T04:13:55;6.60;;;3.50;;
66727;SDS011;53641;44.274;19.890;2023-09-19T04:16:22;5.22;;;3.60;;
66727;SDS011;53641;44.274;19.890;2023-09-19T04:18:48;4.82;;;3.30;;
66727;SDS011;53641;44.274;19.890;2023-09-19T04:21:14;9.07;;;3.72;;
66727;SDS011;53641;44.274;19.890;2023-09-19T04:23:39;5.57;;;3.20;;
66727;SDS011;53641;44.274;19.890;2023-09-19T04:26:05;5.30;;;3.20;;
66727;SDS011;53641;44.274;19.890;2023-09-19T04:28:31;6.53;;;3.25;;
66727;SDS011;53641;44.274;19.890;2023-09-19T04:30:59;7.90;;;4.50;;
66727;SDS011;53641;44.274;19.890;2023-09-19T04:33:25;4.78;;;3.42;;
66727;SDS011;53641;44.274;19.890;2023-09-19T04:35:52;7.53;;;3.63;;
66727;SDS011;53641;44.274;19.890;2023-09-19T04:38:18;8.00;;;3.90;;
66727;SDS011;53641;44.274;19.890;2023-09-19T04:40:44;6.53;;;4.03;;
66727;SDS011;53641;44.274;19.890;2023-09-19T04:43:10;13.90;;;4.15;;
66727;SDS011;53641;44.274;19.890;2023-09-19T04:45:37;5.13;;;3.35;;
66727;SDS011;53641;44.274;19.890;2023-09-19T04:48:04;6.03;;;4.25;;
66727;SDS011;53641;44.274;19.890;2023-09-19T04:50:32;7.10;;;3.95;;
66727;SDS011;53641;44.274;19.890;2023-09-19T04:52:59;7.07;;;3.30;;
66727;SDS011;53641;44.274;19.890;2023-09-19T04:55:26;11.48;;;3.80;;
66727;SDS011;53641;44.274;19.890;2023-09-19T04:57:52;5.20;;;4.18;;
66727;SDS011;53641;44.274;19.890;2023-09-19T05:00:22;6.47;;;4.20;;
66727;SDS011;53641;44.274;19.890;2023-09-19T05:05:16;6.35;;;4.30;;
66727;SDS011;53641;44.274;19.890;2023-09-19T05:07:42;7.63;;;4.05;;
66727;SDS011;53641;44.274;19.890;2023-09-19T05:10:12;7.53;;;3.90;;
66727;SDS011;53641;44.274;19.890;2023-09-19T05:12:38;9.30;;;4.47;;
66727;SDS011;53641;44.274;19.890;2023-09-19T05:15:11;7.70;;;4.28;;
66727;SDS011;53641;44.274;19.890;2023-09-19T05:17:37;8.68;;;4.05;;
66727;SDS011;53641;44.274;19.890;2023-09-19T05:20:04;8.18;;;3.92;;
66727;SDS011;53641;44.274;19.890;2023-09-19T05:22:41;8.35;;;4.35;;
66727;SDS011;53641;44.274;19.890;2023-09-19T05:25:08;7.63;;;4.13;;
66727;SDS011;53641;44.274;19.890;2023-09-19T05:27:35;6.43;;;4.03;;
66727;SDS011;53641;44.274;19.890;2023-09-19T05:30:01;6.88;;;4.00;;
66727;SDS011;53641;44.274;19.890;2023-09-19T05:32:27;10.32;;;4.65;;
66727;SDS011;53641;44.274;19.890;2023-09-19T05:34:53;10.52;;;5.05;;
66727;SDS011;53641;44.274;19.890;2023-09-19T05:37:21;9.15;;;6.03;;
66727;SDS011;53641;44.274;19.890;2023-09-19T05:39:48;11.23;;;5.70;;
66727;SDS011;53641;44.274;19.890;2023-09-19T05:42:14;8.07;;;4.95;;
66727;SDS011;53641;44.274;19.890;2023-09-19T05:44:42;10.80;;;6.28;;
66727;SDS011;53641;44.274;19.890;2023-09-19T05:47:11;7.05;;;4.05;;
66727;SDS011;53641;44.274;19.890;2023-09-19T05:49:38;8.38;;;4.40;;
66727;SDS011;53641;44.274;19.890;2023-09-19T05:52:05;7.80;;;3.58;;
66727;SDS011;53641;44.274;19.890;2023-09-19T05:54:31;11.50;;;3.72;;
66727;SDS011;53641;44.274;19.890;2023-09-19T05:56:59;11.30;;;3.88;;
66727;SDS011;53641;44.274;19.890;2023-09-19T05:59:25;7.00;;;3.70;;
66727;SDS011;53641;44.274;19.890;2023-09-19T06:01:58;6.75;;;3.60;;
66727;SDS011;53641;44.274;19.890;2023-09-19T06:04:24;9.73;;;4.05;;
66727;SDS011;53641;44.274;19.890;2023-09-19T06:06:50;10.52;;;3.47;;
66727;SDS011;53641;44.274;19.890;2023-09-19T06:09:16;8.02;;;4.13;;
66727;SDS011;53641;44.274;19.890;2023-09-19T06:11:42;25.63;;;14.70;;
66727;SDS011;53641;44.274;19.890;2023-09-19T06:14:10;19.38;;;7.30;;
66727;SDS011;53641;44.274;19.890;2023-09-19T06:16:36;17.30;;;7.38;;
66727;SDS011;53641;44.274;19.890;2023-09-19T06:19:25;10.77;;;4.68;;
66727;SDS011;53641;44.274;19.890;2023-09-19T06:21:52;8.05;;;4.20;;
66727;SDS011;53641;44.274;19.890;2023-09-19T06:24:19;7.07;;;3.33;;
66727;SDS011;53641;44.274;19.890;2023-09-19T06:26:48;10.77;;;3.90;;
66727;SDS011;53641;44.274;19.890;2023-09-19T06:29:20;11.52;;;3.78;;
66727;SDS011;53641;44.274;19.890;2023-09-19T06:31:52;5.80;;;3.85;;
66727;SDS011;53641;44.274;19.890;2023-09-19T06:34:17;6.05;;;3.40;;
66727;SDS011;53641;44.274;19.890;2023-09-19T06:36:44;10.88;;;3.20;;
66727;SDS011;53641;44.274;19.890;2023-09-19T06:39:12;10.63;;;3.80;;
66727;SDS011;53641;44.274;19.890;2023-09-19T06:41:41;10.38;;;3.75;;
66727;SDS011;53641;44.274;19.890;2023-09-19T06:44:07;11.48;;;3.95;;
66727;SDS011;53641;44.274;19.890;2023-09-19T06:46:37;10.65;;;4.18;;
66727;SDS011;53641;44.274;19.890;2023-09-19T06:49:06;18.17;;;3.72;;
66727;SDS011;53641;44.274;19.890;2023-09-19T06:51:32;5.60;;;3.67;;
66727;SDS011;53641;44.274;19.890;2023-09-19T06:54:00;7.72;;;3.55;;
66727;SDS011;53641;44.274;19.890;2023-09-19T06:56:27;8.32;;;3.50;;
66727;SDS011;53641;44.274;19.890;2023-09-19T06:58:55;11.95;;;4.03;;
66727;SDS011;53641;44.274;19.890;2023-09-19T07:01:32;9.68;;;3.80;;
66727;SDS011;53641;44.274;19.890;2023-09-19T07:04:05;7.55;;;3.53;;
66727;SDS011;53641;44.274;19.890;2023-09-19T07:06:30;9.90;;;3.95;;
66727;SDS011;53641;44.274;19.890;2023-09-19T07:09:00;14.45;;;4.70;;
66727;SDS011;53641;44.274;19.890;2023-09-19T07:11:26;9.10;;;4.13;;
66727;SDS011;53641;44.274;19.890;2023-09-19T07:13:56;7.78;;;4.28;;
66727;SDS011;53641;44.274;19.890;2023-09-19T07:16:22;19.02;;;11.45;;
66727;SDS011;53641;44.274;19.890;2023-09-19T07:18:54;16.20;;;5.82;;
66727;SDS011;53641;44.274;19.890;2023-09-19T07:21:21;10.13;;;5.45;;
66727;SDS011;53641;44.274;19.890;2023-09-19T07:23:51;17.52;;;5.63;;
66727;SDS011;53641;44.274;19.890;2023-09-19T07:26:17;8.85;;;5.57;;
66727;SDS011;53641;44.274;19.890;2023-09-19T07:28:46;14.20;;;5.25;;
66727;SDS011;53641;44.274;19.890;2023-09-19T07:31:12;13.02;;;4.93;;
66727;SDS011;53641;44.274;19.890;2023-09-19T07:33:39;18.10;;;4.88;;
66727;SDS011;53641;44.274;19.890;2023-09-19T07:36:11;11.95;;;5.65;;
66727;SDS011;53641;44.274;19.890;2023-09-19T07:38:41;15.10;;;4.80;;
66727;SDS011;53641;44.274;19.890;2023-09-19T07:41:07;12.13;;;4.88;;
66727;SDS011;53641;44.274;19.890;2023-09-19T07:43:34;9.30;;;4.90;;
66727;SDS011;53641;44.274;19.890;2023-09-19T07:46:04;12.77;;;5.00;;
66727;SDS011;53641;44.274;19.890;2023-09-19T07:48:36;10.35;;;4.63;;
66727;SDS011;53641;44.274;19.890;2023-09-19T07:51:13;8.93;;;4.85;;
66727;SDS011;53641;44.274;19.890;2023-09-19T07:53:41;11.73;;;5.13;;
66727;SDS011;53641;44.274;19.890;2023-09-19T07:56:08;8.80;;;4.95;;
66727;SDS011;53641;44.274;19.890;2023-09-19T07:58:35;9.05;;;4.68;;
66727;SDS011;53641;44.274;19.890;2023-09-19T08:01:07;10.80;;;4.93;;
66727;SDS011;53641;44.274;19.890;2023-09-19T08:03:36;6.43;;;4.13;;
66727;SDS011;53641;44.274;19.890;2023-09-19T08:06:06;13.52;;;4.40;;
66727;SDS011;53641;44.274;19.890;2023-09-19T08:08:33;11.45;;;5.07;;
66727;SDS011;53641;44.274;19.890;2023-09-19T08:11:02;11.13;;;4.63;;
66727;SDS011;53641;44.274;19.890;2023-09-19T08:13:35;8.45;;;4.50;;
66727;SDS011;53641;44.274;19.890;2023-09-19T08:16:02;8.85;;;4.40;;
66727;SDS011;53641;44.274;19.890;2023-09-19T08:18:29;9.27;;;4.70;;
66727;SDS011;53641;44.274;19.890;2023-09-19T08:20:58;12.63;;;4.82;;
66727;SDS011;53641;44.274;19.890;2023-09-19T08:23:25;16.42;;;5.90;;
66727;SDS011;53641;44.274;19.890;2023-09-19T08:25:57;14.85;;;7.53;;
66727;SDS011;53641;44.274;19.890;2023-09-19T08:28:23;17.67;;;8.02;;
66727;SDS011;53641;44.274;19.890;2023-09-19T08:30:49;11.35;;;7.57;;
66727;SDS011;53641;44.274;19.890;2023-09-19T08:33:16;16.13;;;8.20;;
66727;SDS011;53641;44.274;19.890;2023-09-19T08:35:42;17.45;;;8.65;;
66727;SDS011;53641;44.274;19.890;2023-09-19T08:38:09;13.68;;;7.65;;
66727;SDS011;53641;44.274;19.890;2023-09-19T08:40:39;13.32;;;7.10;;
66727;SDS011;53641;44.274;19.890;2023-09-19T08:43:07;14.00;;;6.95;;
66727;SDS011;53641;44.274;19.890;2023-09-19T08:45:33;10.85;;;6.35;;
66727;SDS011;53641;44.274;19.890;2023-09-19T08:48:08;15.43;;;7.18;;
66727;SDS011;53641;44.274;19.890;2023-09-19T08:50:49;13.00;;;7.05;;
66727;SDS011;53641;44.274;19.890;2023-09-19T08:53:21;10.25;;;6.30;;
66727;SDS011;53641;44.274;19.890;2023-09-19T08:55:53;12.43;;;6.63;;
66727;SDS011;53641;44.274;19.890;2023-09-19T08:58:23;12.98;;;5.75;;
66727;SDS011;53641;44.274;19.890;2023-09-19T09:00:54;10.90;;;6.65;;
66727;SDS011;53641;44.274;19.890;2023-09-19T09:03:22;9.73;;;6.15;;
66727;SDS011;53641;44.274;19.890;2023-09-19T09:05:49;11.43;;;6.78;;
66727;SDS011;53641;44.274;19.890;2023-09-19T09:08:16;11.68;;;6.13;;
66727;SDS011;53641;44.274;19.890;2023-09-19T09:10:44;9.65;;;5.88;;
66727;SDS011;53641;44.274;19.890;2023-09-19T09:13:09;13.38;;;5.85;;
66727;SDS011;53641;44.274;19.890;2023-09-19T09:15:39;22.58;;;4.93;;
66727;SDS011;53641;44.274;19.890;2023-09-19T09:18:06;12.25;;;4.43;;
66727;SDS011;53641;44.274;19.890;2023-09-19T09:20:35;12.52;;;3.92;;
66727;SDS011;53641;44.274;19.890;2023-09-19T09:23:07;10.52;;;4.07;;
66727;SDS011;53641;44.274;19.890;2023-09-19T09:25:52;7.30;;;3.90;;
66727;SDS011;53641;44.274;19.890;2023-09-19T09:28:25;6.35;;;3.80;;
66727;SDS011;53641;44.274;19.890;2023-09-19T09:30:53;10.48;;;4.38;;
66727;SDS011;53641;44.274;19.890;2023-09-19T09:33:20;9.70;;;3.70;;
66727;SDS011;53641;44.274;19.890;2023-09-19T09:35:53;9.27;;;3.58;;
66727;SDS011;53641;44.274;19.890;2023-09-19T09:38:47;9.80;;;4.75;;
66727;SDS011;53641;44.274;19.890;2023-09-19T09:41:20;10.43;;;4.65;;
66727;SDS011;53641;44.274;19.890;2023-09-19T09:44:12;10.23;;;5.03;;
66727;SDS011;53641;44.274;19.890;2023-09-19T09:46:44;9.73;;;4.20;;
66727;SDS011;53641;44.274;19.890;2023-09-19T09:49:24;9.93;;;4.50;;
66727;SDS011;53641;44.274;19.890;2023-09-19T09:52:02;9.93;;;4.70;;
66727;SDS011;53641;44.274;19.890;2023-09-19T09:54:33;10.88;;;4.35;;
66727;SDS011;53641;44.274;19.890;2023-09-19T09:57:05;10.52;;;3.90;;
66727;SDS011;53641;44.274;19.890;2023-09-19T09:59:49;8.10;;;3.92;;
66727;SDS011;53641;44.274;19.890;2023-09-19T10:02:16;7.55;;;3.60;;
66727;SDS011;53641;44.274;19.890;2023-09-19T10:04:49;18.70;;;4.15;;
66727;SDS011;53641;44.274;19.890;2023-09-19T10:07:35;13.88;;;4.60;;
66727;SDS011;53641;44.274;19.890;2023-09-19T10:10:06;9.40;;;3.53;;
66727;SDS011;53641;44.274;19.890;2023-09-19T10:12:46;8.73;;;3.67;;
66727;SDS011;53641;44.274;19.890;2023-09-19T10:15:18;11.93;;;3.90;;
66727;SDS011;53641;44.274;19.890;2023-09-19T10:17:49;14.00;;;4.22;;
66727;SDS011;53641;44.274;19.890;2023-09-19T10:20:27;8.85;;;3.00;;
66727;SDS011;53641;44.274;19.890;2023-09-19T10:23:04;9.52;;;3.60;;
66727;SDS011;53641;44.274;19.890;2023-09-19T10:25:38;11.90;;;3.25;;
66727;SDS011;53641;44.274;19.890;2023-09-19T10:28:05;6.40;;;3.38;;
66727;SDS011;53641;44.274;19.890;2023-09-19T10:30:36;16.08;;;3.40;;
66727;SDS011;53641;44.274;19.890;2023-09-19T10:33:04;12.50;;;2.72;;
66727;SDS011;53641;44.274;19.890;2023-09-19T10:35:32;9.82;;;2.60;;
66727;SDS011;53641;44.274;19.890;2023-09-19T10:38:02;10.45;;;3.40;;
66727;SDS011;53641;44.274;19.890;2023-09-19T10:40:33;9.75;;;3.05;;
66727;SDS011;53641;44.274;19.890;2023-09-19T10:43:04;10.55;;;2.88;;
66727;SDS011;53641;44.274;19.890;2023-09-19T10:45:31;14.48;;;3.47;;
66727;SDS011;53641;44.274;19.890;2023-09-19T10:48:01;11.70;;;2.53;;
66727;SDS011;53641;44.274;19.890;2023-09-19T10:50:30;11.30;;;3.08;;
66727;SDS011;53641;44.274;19.890;2023-09-19T10:53:16;11.55;;;2.65;;
66727;SDS011;53641;44.274;19.890;2023-09-19T10:55:50;8.60;;;2.60;;
66727;SDS011;53641;44.274;19.890;2023-09-19T10:58:28;14.55;;;3.05;;
66727;SDS011;53641;44.274;19.890;2023-09-19T11:00:56;8.65;;;3.08;;
66727;SDS011;53641;44.274;19.890;2023-09-19T11:03:30;10.48;;;3.22;;
66727;SDS011;53641;44.274;19.890;2023-09-19T11:06:15;9.27;;;2.70;;
66727;SDS011;53641;44.274;19.890;2023-09-19T11:08:52;8.52;;;2.40;;
66727;SDS011;53641;44.274;19.890;2023-09-19T11:11:42;9.70;;;2.70;;
66727;SDS011;53641;44.274;19.890;2023-09-19T11:14:16;11.85;;;3.08;;
66727;SDS011;53641;44.274;19.890;2023-09-19T11:20:17;9.80;;;2.70;;
66727;SDS011;53641;44.274;19.890;2023-09-19T11:23:20;14.75;;;2.47;;
66727;SDS011;53641;44.274;19.890;2023-09-19T11:25:43;8.18;;;2.58;;
66727;SDS011;53641;44.274;19.890;2023-09-19T11:28:31;6.95;;;2.55;;
66727;SDS011;53641;44.274;19.890;2023-09-19T11:31:40;7.28;;;2.05;;
66727;SDS011;53641;44.274;19.890;2023-09-19T11:34:44;5.85;;;2.03;;
66727;SDS011;53641;44.274;19.890;2023-09-19T11:38:04;8.52;;;2.17;;
66727;SDS011;53641;44.274;19.890;2023-09-19T11:40:10;9.65;;;2.38;;
66727;SDS011;53641;44.274;19.890;2023-09-19T11:42:49;8.50;;;2.08;;
66727;SDS011;53641;44.274;19.890;2023-09-19T11:46:14;10.63;;;2.92;;
66727;SDS011;53641;44.274;19.890;2023-09-19T11:48:23;10.02;;;2.45;;
66727;SDS011;53641;44.274;19.890;2023-09-19T11:50:52;7.40;;;2.35;;
66727;SDS011;53641;44.274;19.890;2023-09-19T11:53:18;11.20;;;2.63;;
66727;SDS011;53641;44.274;19.890;2023-09-19T11:55:51;8.40;;;2.70;;
66727;SDS011;53641;44.274;19.890;2023-09-19T11:58:26;13.98;;;2.20;;
66727;SDS011;53641;44.274;19.890;2023-09-19T12:00:54;12.05;;;2.90;;
66727;SDS011;53641;44.274;19.890;2023-09-19T12:03:23;13.25;;;2.13;;
66727;SDS011;53641;44.274;19.890;2023-09-19T12:05:58;9.73;;;2.38;;
66727;SDS011;53641;44.274;19.890;2023-09-19T12:08:24;11.98;;;2.72;;
66727;SDS011;53641;44.274;19.890;2023-09-19T12:10:52;17.77;;;2.63;;
66727;SDS011;53641;44.274;19.890;2023-09-19T12:13:20;10.27;;;2.40;;
66727;SDS011;53641;44.274;19.890;2023-09-19T12:15:46;6.30;;;1.80;;
66727;SDS011;53641;44.274;19.890;2023-09-19T12:18:31;12.18;;;2.20;;
66727;SDS011;53641;44.274;19.890;2023-09-19T12:20:59;11.52;;;2.38;;
66727;SDS011;53641;44.274;19.890;2023-09-19T12:23:29;7.38;;;2.50;;
66727;SDS011;53641;44.274;19.890;2023-09-19T12:25:55;10.07;;;2.53;;
66727;SDS011;53641;44.274;19.890;2023-09-19T12:28:26;5.55;;;2.10;;
66727;SDS011;53641;44.274;19.890;2023-09-19T12:31:06;11.02;;;2.63;;
66727;SDS011;53641;44.274;19.890;2023-09-19T12:33:32;8.52;;;2.10;;
66727;SDS011;53641;44.274;19.890;2023-09-19T12:35:59;7.65;;;2.45;;
66727;SDS011;53641;44.274;19.890;2023-09-19T12:38:25;7.85;;;2.30;;
66727;SDS011;53641;44.274;19.890;2023-09-19T12:41:01;13.02;;;2.55;;
66727;SDS011;53641;44.274;19.890;2023-09-19T12:43:31;9.63;;;2.00;;
66727;SDS011;53641;44.274;19.890;2023-09-19T12:45:58;12.50;;;2.42;;
66727;SDS011;53641;44.274;19.890;2023-09-19T12:48:30;7.53;;;2.40;;
66727;SDS011;53641;44.274;19.890;2023-09-19T12:51:00;10.70;;;1.92;;
66727;SDS011;53641;44.274;19.890;2023-09-19T12:53:28;5.57;;;2.03;;
66727;SDS011;53641;44.274;19.890;2023-09-19T12:55:58;12.20;;;2.35;;
66727;SDS011;53641;44.274;19.890;2023-09-19T12:58:24;12.48;;;2.85;;
66727;SDS011;53641;44.274;19.890;2023-09-19T13:00:50;9.00;;;2.20;;
66727;SDS011;53641;44.274;19.890;2023-09-19T13:03:25;8.93;;;2.20;;
66727;SDS011;53641;44.274;19.890;2023-09-19T13:05:58;10.75;;;2.30;;
66727;SDS011;53641;44.274;19.890;2023-09-19T13:08:27;5.45;;;1.98;;
66727;SDS011;53641;44.274;19.890;2023-09-19T13:11:04;7.72;;;2.03;;
66727;SDS011;53641;44.274;19.890;2023-09-19T13:13:44;7.22;;;1.65;;
66727;SDS011;53641;44.274;19.890;2023-09-19T13:16:14;10.65;;;2.65;;
66727;SDS011;53641;44.274;19.890;2023-09-19T13:18:48;8.98;;;2.05;;
66727;SDS011;53641;44.274;19.890;2023-09-19T13:21:31;6.60;;;2.03;;
66727;SDS011;53641;44.274;19.890;2023-09-19T13:24:18;10.77;;;3.35;;
66727;SDS011;53641;44.274;19.890;2023-09-19T13:26:48;9.27;;;2.10;;
66727;SDS011;53641;44.274;19.890;2023-09-19T13:29:15;13.73;;;2.50;;
66727;SDS011;53641;44.274;19.890;2023-09-19T13:31:47;7.90;;;2.40;;
66727;SDS011;53641;44.274;19.890;2023-09-19T13:34:17;8.32;;;2.50;;
66727;SDS011;53641;44.274;19.890;2023-09-19T13:36:43;9.05;;;2.10;;
66727;SDS011;53641;44.274;19.890;2023-09-19T13:39:09;8.32;;;2.17;;
66727;SDS011;53641;44.274;19.890;2023-09-19T13:41:38;6.95;;;2.25;;
66727;SDS011;53641;44.274;19.890;2023-09-19T13:44:04;10.23;;;2.10;;
66727;SDS011;53641;44.274;19.890;2023-09-19T13:46:31;9.10;;;2.28;;
66727;SDS011;53641;44.274;19.890;2023-09-19T13:49:00;11.40;;;2.80;;
66727;SDS011;53641;44.274;19.890;2023-09-19T13:51:28;4.82;;;2.25;;
66727;SDS011;53641;44.274;19.890;2023-09-19T13:53:58;10.48;;;2.33;;
66727;SDS011;53641;44.274;19.890;2023-09-19T13:56:27;7.75;;;2.90;;
66727;SDS011;53641;44.274;19.890;2023-09-19T13:58:54;9.88;;;2.47;;
66727;SDS011;53641;44.274;19.890;2023-09-19T14:01:20;9.50;;;2.00;;
66727;SDS011;53641;44.274;19.890;2023-09-19T14:03:49;12.88;;;2.85;;
66727;SDS011;53641;44.274;19.890;2023-09-19T14:06:16;4.20;;;1.58;;
66727;SDS011;53641;44.274;19.890;2023-09-19T14:08:43;9.68;;;2.08;;
66727;SDS011;53641;44.274;19.890;2023-09-19T14:11:15;5.20;;;1.77;;
66727;SDS011;53641;44.274;19.890;2023-09-19T14:13:41;5.65;;;1.77;;
66727;SDS011;53641;44.274;19.890;2023-09-19T14:18:37;5.78;;;2.65;;
66727;SDS011;53641;44.274;19.890;2023-09-19T14:21:04;8.93;;;2.22;;
66727;SDS011;53641;44.274;19.890;2023-09-19T14:23:37;10.48;;;2.30;;
66727;SDS011;53641;44.274;19.890;2023-09-19T14:26:03;8.52;;;2.15;;
66727;SDS011;53641;44.274;19.890;2023-09-19T14:28:33;9.32;;;2.72;;
66727;SDS011;53641;44.274;19.890;2023-09-19T14:31:06;10.40;;;2.80;;
66727;SDS011;53641;44.274;19.890;2023-09-19T14:33:33;4.50;;;2.50;;
66727;SDS011;53641;44.274;19.890;2023-09-19T14:36:02;8.40;;;2.08;;
66727;SDS011;53641;44.274;19.890;2023-09-19T14:38:33;7.07;;;2.15;;
66727;SDS011;53641;44.274;19.890;2023-09-19T14:41:00;8.02;;;2.08;;
66727;SDS011;53641;44.274;19.890;2023-09-19T14:43:28;10.50;;;3.30;;
66727;SDS011;53641;44.274;19.890;2023-09-19T14:45:57;5.85;;;2.15;;
66727;SDS011;53641;44.274;19.890;2023-09-19T14:48:27;9.57;;;2.60;;
66727;SDS011;53641;44.274;19.890;2023-09-19T14:50:53;6.38;;;2.42;;
66727;SDS011;53641;44.274;19.890;2023-09-19T14:53:20;10.95;;;3.03;;
66727;SDS011;53641;44.274;19.890;2023-09-19T14:55:46;7.97;;;3.22;;
66727;SDS011;53641;44.274;19.890;2023-09-19T14:58:13;7.25;;;2.50;;
66727;SDS011;53641;44.274;19.890;2023-09-19T15:00:39;4.13;;;2.40;;